Terminal Aerodrome Forecast
Issued by NWS

Home | Current Version | Previous Version | Text Only | Print | Product List | Glossary On
Versions: 1 2 3 4 5 6 7 8 9 10 11 12 13 14 15
000
FTUS42 KMLB 270530
TAFFPR
TAF
KFPR 270530Z 2706/2806 25007KT P6SM BKN250
      TEMPO 2710/2713 BKN012
     FM271500 29008KT P6SM SCT030 BKN150
     FM272000 05008KT P6SM SCT030 BKN060
     FM280100 VRB04KT P6SM FEW025 BKN200=

USA.gov is the U.S. government's official web portal to all federal, state and local government web resources and services.